WEATHER/FLIGHT PLANNING

Hattiesburg Radar

 

 

 

 

Weather Links

Flight Planning Links

 

METAR

2017/06/26 00:53 KHBG 260053Z AUTO 02005KT 10SM CLR 26/19 A3013 RMK AO2 SLP200 T02560189

TAF

2017/06/25 18:22 TAF KHBG 251720Z 2518/2618 02009KT P6SM BKN050 FM260000 01003KT P6SM SCT150